Palembang
Home > Kaskuser Regional > INDONESIA > SUMATERA > Palembang > ▓▓▒▒ Radar Cuaca Palembang dan Sekitarnya ▒▒▓▓
Total Views: 14903 Share : Facebook ShareFacebook Twitter ShareTwitter Google+ ShareGoogle+
Page 15 of 64 | ‹ First  < 10 11 12 13 14 15 16 17 18 19 20 >  Last ›

dianabazz - 30/07/2011 09:32 AM
#281

T A F O R


FTID32 WIPP 292316
TAF WIPP 292300Z 3000/3024 00000KT 2000 HZ FEW012 BECMG 3001/3003 16009KT 9999 NSW SCT016 TEMPO 3007/3011 7000 TEMPO 3020/3024 00000KT 2000 HZ SCT015=


Bingung cara bacanya???bingungs
klik aja Cara membaca TAFOR
dianabazz - 30/07/2011 09:35 AM
#282

▓▓▒▒ Radar Cuaca Palembang dan Sekitarnya ▒▒▓▓
dianabazz - 30/07/2011 09:35 AM
#283

▓▓▒▒ Radar Cuaca Palembang dan Sekitarnya ▒▒▓▓
alfianboys - 30/07/2011 01:59 PM
#284

wah ado radarnyo pulok...
btw TS nyo wong penerbangan ye... pacak tau arti2 dari format METAR matabelo:
btw nambahin bae nah biar dak saro ngarti ke METAR nyo klik

btw klo decoder in nyo apus yg dak perlu biar tebaco oleh decodernyo
FTID32 WIPP 292316
TAF WIPP 292300Z 3000/3024 00000KT 2000 HZ FEW012 BECMG 3001/3003 16009KT 9999 NSW SCT016 TEMPO 3007/3011 7000 TEMPO 3020/3024 00000KT 2000 HZ SCT015=
*apus yang aku bold samo = yg dibelakang sekali biar tebaco oleh decodernyo...
oh iyo WIPP itu bukan nyo code icao buat bandara sultan mahmud baddarudin II ye?


klo dak berminat VM bae gek aku apus link nyo malus
dianabazz - 31/07/2011 07:33 PM
#285

Quote:
Original Posted By alfianboys
wah ado radarnyo pulok...
btw TS nyo wong penerbangan ye... pacak tau arti2 dari format METAR matabelo:
btw nambahin bae nah biar dak saro ngarti ke METAR nyo klik

btw klo decoder in nyo apus yg dak perlu biar tebaco oleh decodernyo
FTID32 WIPP 292316
TAF WIPP 292300Z 3000/3024 00000KT 2000 HZ FEW012 BECMG 3001/3003 16009KT 9999 NSW SCT016 TEMPO 3007/3011 7000 TEMPO 3020/3024 00000KT 2000 HZ SCT015=
*apus yang aku bold samo = yg dibelakang sekali biar tebaco oleh decodernyo...
oh iyo WIPP itu bukan nyo code icao buat bandara sultan mahmud baddarudin II ye?


klo dak berminat VM bae gek aku apus link nyo malus


bukan gan malus
kebetulan kerja di bandara bagian observasi, untuk pembuatan MET REPORT
untuk cuaca penerbangan

WIPP memang ICAO buat SMB II Palembang
trims dah bagi decodernya, ini berguna buat teman2 yang masing bingung bacanya
klo ane diliat aja dah paham karena memang kerjaan malus

buat heading TAFOR memang aturannya dari sana gan
=(sama dengan) memang juga aturannya untuk menutup

dan yang ane tampilin disini adalah TAFOR bukan METAR
memang sekilas mirip tapi prinsipnya METAR adalah hasil pengamatan jadi berlaku 1 jam kedepan karena jam berikutnya sudah ada pengamatan terbaru
contoh:
SAID32 WIPP 311100
METAR WIPP 311100Z 11006KT 9999 FEW120 29/20 Q1007=

tapi TAFOR adalah prakiraan cuaca 6-12 jam kedepan

orang palembang juga ya pastinya??di bandara juga ya

trims gan atas masukannya
dianabazz - 31/07/2011 07:46 PM
#286

T A F O R


FTID32 WIPP 310500
TAF WIPP 310450Z 3106/0106 15012KT 9999 SCT017 TEMPO 3120/3124 00000KT 3000 HZ FEW015 BECMG 0101/0103 12007KT 9999 SCT015=


Bingung cara bacanya???bingungs
klik aja Cara membaca TAFOR
dianabazz - 31/07/2011 07:48 PM
#287

▓▓▒▒ Radar Cuaca Palembang dan Sekitarnya ▒▒▓▓
alfianboys - 31/07/2011 08:51 PM
#288

Quote:
Original Posted By dianabazz
bukan gan malus
kebetulan kerja di bandara bagian observasi, untuk pembuatan MET REPORT
untuk cuaca penerbangan

WIPP memang ICAO buat SMB II Palembang
trims dah bagi decodernya, ini berguna buat teman2 yang masing bingung bacanya
klo ane diliat aja dah paham karena memang kerjaan malus

buat heading TAFOR memang aturannya dari sana gan
=(sama dengan) memang juga aturannya untuk menutup

dan yang ane tampilin disini adalah TAFOR bukan METAR
memang sekilas mirip tapi prinsipnya METAR adalah hasil pengamatan jadi berlaku 1 jam kedepan karena jam berikutnya sudah ada pengamatan terbaru
contoh:
SAID32 WIPP 311100
METAR WIPP 311100Z 11006KT 9999 FEW120 29/20 Q1007=

tapi TAFOR adalah prakiraan cuaca 6-12 jam kedepan

orang palembang juga ya pastinya??di bandara juga ya

trims gan atas masukannya


ooo wong bandara ye.. pantes tau ngakaks
aku jugo wong palembang tapi bkan wong bandara cuma flight simmer bae jadi agak2 ngerti dengan metar ini p
kirbal nyo besok bae yoo.. dah nimpuk wong tadi siang D
Arestullah - 31/07/2011 09:40 PM
#289

wow wong bandara galo caknyo di pocok nih. Maluan aku laju... malus

Oy mang (atau bik, lupo aku)
Tolong dijelaske sekali lagi baco TAFOR tuh. Dulu pas tobok ajari la biso aku baco secaro langsong. Tapi karno la sebulanan dak bukak Kaskus n dak liat ini laju la lupo caro baconyo...
dianabazz - 01/08/2011 11:00 AM
#290

Quote:
Original Posted By alfianboys
ooo wong bandara ye.. pantes tau ngakaks
aku jugo wong palembang tapi bkan wong bandara cuma flight simmer bae jadi agak2 ngerti dengan metar ini p
kirbal nyo besok bae yoo.. dah nimpuk wong tadi siang D

kiroi di bandara mang, tinggal maen ke meteo bae klo di bandara
masalah ijo dkpapo mang nyantai bae D

Quote:
Original Posted By Arestullah
wow wong bandara galo caknyo di pocok nih. Maluan aku laju... malus

Oy mang (atau bik, lupo aku)
Tolong dijelaske sekali lagi baco TAFOR tuh. Dulu pas tobok ajari la biso aku baco secaro langsong. Tapi karno la sebulanan dak bukak Kaskus n dak liat ini laju la lupo caro baconyo...

nah klo masalah baconyo silahkan ke situ bae mang >>>>bikini:
klo nak dijelaske susah klo dak ado TAFOR nyo
dianabazz - 01/08/2011 09:41 PM
#291

T A F O R


FTID32 WIPP 011100
TAF WIPP 011050Z 0112/0212 12008KT 9999 SCT017 TEMPO 0121/0124 00000KT 3000 BR FEW015 BECMG 0201/0203 16007KT 9999 SCT015=


Bingung cara bacanya???bingungs
klik aja Cara membaca TAFOR
dianabazz - 01/08/2011 09:42 PM
#292

▓▓▒▒ Radar Cuaca Palembang dan Sekitarnya ▒▒▓▓
dianabazz - 01/08/2011 09:43 PM
#293

▓▓▒▒ Radar Cuaca Palembang dan Sekitarnya ▒▒▓▓
dianabazz - 02/08/2011 10:31 AM
#294

T A F O R


FTID32 WIPP 012335
TAF WIPP 012330 0200/0224 13009KT 9000 SCT017 BECMG 0211/0213 15006KT 8000 TEMPO 0221/0224 3000 HZ FEW015=


Bingung cara bacanya???bingungs
klik aja Cara membaca TAFOR
dianabazz - 02/08/2011 10:33 AM
#295

▓▓▒▒ Radar Cuaca Palembang dan Sekitarnya ▒▒▓▓
mangcak85 - 02/08/2011 05:31 PM
#296
Assalamualaikum
spesial thanks buat mang TS recsel:2thumbup nihh untuk bukoan sore nii mang :toast
alamfirdaus - 02/08/2011 05:40 PM
#297

mantap info nyo
dianabazz - 02/08/2011 10:43 PM
#298

Quote:
Original Posted By mangcak85
spesial thanks buat mang TS recsel:2thumbup nihh untuk bukoan sore nii mang :toast

thanks mang

Quote:
Original Posted By alamfirdaus
mantap info nyo

mokasih
dianabazz - 02/08/2011 10:45 PM
#299

T A F O R


FTID32 WIPP 021100
TAF WIPP 021100Z 0212/0312 10005KT 9999 SCT016 TEMPO 0221/0301 00000KT 1000 FG FEW012 BECMG 0301/0303 16008KT 9999 NSW SCT015=


Bingung cara bacanya???bingungs
klik aja Cara membaca TAFOR
dianabazz - 03/08/2011 01:04 PM
#300

T A F O R


FTID32 WIPP 030504
TAF WIPP 030500Z 0306/0406 16008KT 9999 NSW SCT016 TEMPO 0308/0312 7000 -RA BKN015 TEMPO 0320/0324 00000KT 3000 HZ FEW012 BECMG 0401/0403 13008KT 9999 NSW SCT016=


Bingung cara bacanya???bingungs
klik aja Cara membaca TAFOR
Page 15 of 64 | ‹ First  < 10 11 12 13 14 15 16 17 18 19 20 >  Last ›
Home > Kaskuser Regional > INDONESIA > SUMATERA > Palembang > ▓▓▒▒ Radar Cuaca Palembang dan Sekitarnya ▒▒▓▓